sensor_id;sensor_type;location;lat;lon;timestamp;pressure;altitude;pressure_sealevel;temperature
68510;BMP180;55512;50.102;19.958;2022-07-03T00:01:54;99358.20;;;15.80
68510;BMP180;55512;50.102;19.958;2022-07-03T00:04:20;99351.60;;;15.70
68510;BMP180;55512;50.102;19.958;2022-07-03T00:06:46;99344.00;;;15.70
68510;BMP180;55512;50.102;19.958;2022-07-03T00:09:13;99342.20;;;15.80
68510;BMP180;55512;50.102;19.958;2022-07-03T00:11:39;99341.60;;;15.80
68510;BMP180;55512;50.102;19.958;2022-07-03T00:14:05;99342.80;;;15.90
68510;BMP180;55512;50.102;19.958;2022-07-03T00:16:31;99345.20;;;15.90
68510;BMP180;55512;50.102;19.958;2022-07-03T00:18:57;99344.80;;;16.00
68510;BMP180;55512;50.102;19.958;2022-07-03T00:21:34;99340.00;;;15.92
68510;BMP180;55512;50.102;19.958;2022-07-03T00:24:10;99338.40;;;15.90
68510;BMP180;55512;50.102;19.958;2022-07-03T00:26:41;99332.80;;;16.00
68510;BMP180;55512;50.102;19.958;2022-07-03T00:29:09;99332.40;;;16.00
68510;BMP180;55512;50.102;19.958;2022-07-03T00:31:35;99332.40;;;16.10
68510;BMP180;55512;50.102;19.958;2022-07-03T00:34:02;99330.80;;;16.10
68510;BMP180;55512;50.102;19.958;2022-07-03T00:36:36;99327.00;;;16.20
68510;BMP180;55512;50.102;19.958;2022-07-03T00:39:04;99325.20;;;16.20
68510;BMP180;55512;50.102;19.958;2022-07-03T00:41:34;99322.00;;;16.20
68510;BMP180;55512;50.102;19.958;2022-07-03T00:44:01;99321.60;;;16.22
68510;BMP180;55512;50.102;19.958;2022-07-03T00:46:28;99320.00;;;16.30
68510;BMP180;55512;50.102;19.958;2022-07-03T00:48:55;99313.80;;;16.32
68510;BMP180;55512;50.102;19.958;2022-07-03T00:51:26;99312.80;;;16.30
68510;BMP180;55512;50.102;19.958;2022-07-03T00:53:55;99311.40;;;16.30
68510;BMP180;55512;50.102;19.958;2022-07-03T00:56:30;99304.20;;;16.40
68510;BMP180;55512;50.102;19.958;2022-07-03T00:59:00;99308.60;;;16.50
68510;BMP180;55512;50.102;19.958;2022-07-03T01:01:31;99307.00;;;16.58
68510;BMP180;55512;50.102;19.958;2022-07-03T01:04:20;99308.20;;;16.60
68510;BMP180;55512;50.102;19.958;2022-07-03T01:07:05;99306.40;;;16.70
68510;BMP180;55512;50.102;19.958;2022-07-03T01:12:43;99292.00;;;16.80
68510;BMP180;55512;50.102;19.958;2022-07-03T01:18:18;99291.20;;;16.80
68510;BMP180;55512;50.102;19.958;2022-07-03T01:21:00;99287.00;;;16.90
68510;BMP180;55512;50.102;19.958;2022-07-03T01:26:38;99276.00;;;17.00
68510;BMP180;55512;50.102;19.958;2022-07-03T01:29:08;99280.20;;;17.00
68510;BMP180;55512;50.102;19.958;2022-07-03T01:31:40;99285.40;;;17.10
68510;BMP180;55512;50.102;19.958;2022-07-03T01:34:13;99281.60;;;17.04
68510;BMP180;55512;50.102;19.958;2022-07-03T01:36:46;99282.00;;;17.00
68510;BMP180;55512;50.102;19.958;2022-07-03T01:39:16;99281.00;;;17.10
68510;BMP180;55512;50.102;19.958;2022-07-03T01:41:47;99281.00;;;17.10
68510;BMP180;55512;50.102;19.958;2022-07-03T01:44:14;99280.20;;;17.10
68510;BMP180;55512;50.102;19.958;2022-07-03T01:46:41;99277.80;;;17.02
68510;BMP180;55512;50.102;19.958;2022-07-03T01:49:13;99282.80;;;17.00
68510;BMP180;55512;50.102;19.958;2022-07-03T01:51:42;99276.80;;;17.00
68510;BMP180;55512;50.102;19.958;2022-07-03T01:54:10;99278.80;;;17.00
68510;BMP180;55512;50.102;19.958;2022-07-03T01:56:36;99272.40;;;17.00
68510;BMP180;55512;50.102;19.958;2022-07-03T01:59:03;99276.20;;;17.00
68510;BMP180;55512;50.102;19.958;2022-07-03T02:01:51;99276.20;;;17.10
68510;BMP180;55512;50.102;19.958;2022-07-03T02:04:34;99275.00;;;17.10
68510;BMP180;55512;50.102;19.958;2022-07-03T02:07:12;99279.80;;;17.20
68510;BMP180;55512;50.102;19.958;2022-07-03T02:10:10;99280.40;;;17.20
68510;BMP180;55512;50.102;19.958;2022-07-03T02:12:59;99276.80;;;17.20
68510;BMP180;55512;50.102;19.958;2022-07-03T02:15:32;99275.40;;;17.30
68510;BMP180;55512;50.102;19.958;2022-07-03T02:18:07;99278.40;;;17.30
68510;BMP180;55512;50.102;19.958;2022-07-03T02:20:39;99270.00;;;17.40
68510;BMP180;55512;50.102;19.958;2022-07-03T02:23:08;99267.40;;;17.40
68510;BMP180;55512;50.102;19.958;2022-07-03T02:25:40;99267.20;;;17.40
68510;BMP180;55512;50.102;19.958;2022-07-03T02:28:40;99266.60;;;17.50
68510;BMP180;55512;50.102;19.958;2022-07-03T02:31:11;99265.60;;;17.50
68510;BMP180;55512;50.102;19.958;2022-07-03T02:33:41;99266.60;;;17.54
68510;BMP180;55512;50.102;19.958;2022-07-03T02:36:11;99263.20;;;17.60
68510;BMP180;55512;50.102;19.958;2022-07-03T02:38:43;99262.60;;;17.60
68510;BMP180;55512;50.102;19.958;2022-07-03T02:41:17;99264.20;;;17.60
68510;BMP180;55512;50.102;19.958;2022-07-03T02:47:27;99262.00;;;17.60
68510;BMP180;55512;50.102;19.958;2022-07-03T02:50:04;99265.40;;;17.60
68510;BMP180;55512;50.102;19.958;2022-07-03T02:55:45;99253.40;;;17.60
68510;BMP180;55512;50.102;19.958;2022-07-03T03:01:20;99256.60;;;17.60
68510;BMP180;55512;50.102;19.958;2022-07-03T03:04:14;99257.00;;;17.60
68510;BMP180;55512;50.102;19.958;2022-07-03T03:06:54;99254.00;;;17.60
68510;BMP180;55512;50.102;19.958;2022-07-03T03:09:27;99249.20;;;17.70
68510;BMP180;55512;50.102;19.958;2022-07-03T03:12:01;99248.80;;;17.70
68510;BMP180;55512;50.102;19.958;2022-07-03T03:14:39;99248.80;;;17.70
68510;BMP180;55512;50.102;19.958;2022-07-03T03:17:06;99251.20;;;17.70
68510;BMP180;55512;50.102;19.958;2022-07-03T03:19:40;99252.40;;;17.74
68510;BMP180;55512;50.102;19.958;2022-07-03T03:25:05;99255.00;;;17.82
68510;BMP180;55512;50.102;19.958;2022-07-03T03:27:30;99254.80;;;17.90
68510;BMP180;55512;50.102;19.958;2022-07-03T03:29:56;99253.20;;;17.90
68510;BMP180;55512;50.102;19.958;2022-07-03T03:32:24;99254.60;;;17.98
68510;BMP180;55512;50.102;19.958;2022-07-03T03:34:51;99261.20;;;17.90
68510;BMP180;55512;50.102;19.958;2022-07-03T03:37:17;99259.60;;;18.00
68510;BMP180;55512;50.102;19.958;2022-07-03T03:39:43;99257.20;;;17.90
68510;BMP180;55512;50.102;19.958;2022-07-03T03:42:09;99257.40;;;18.00
68510;BMP180;55512;50.102;19.958;2022-07-03T03:44:34;99253.60;;;18.00
68510;BMP180;55512;50.102;19.958;2022-07-03T03:47:00;99253.80;;;18.10
68510;BMP180;55512;50.102;19.958;2022-07-03T03:49:26;99247.40;;;18.10
68510;BMP180;55512;50.102;19.958;2022-07-03T03:51:53;99251.60;;;18.10
68510;BMP180;55512;50.102;19.958;2022-07-03T03:54:18;99250.40;;;18.12
68510;BMP180;55512;50.102;19.958;2022-07-03T03:56:44;99245.60;;;18.10
68510;BMP180;55512;50.102;19.958;2022-07-03T03:59:10;99245.20;;;18.20
68510;BMP180;55512;50.102;19.958;2022-07-03T04:01:35;99243.40;;;18.22
68510;BMP180;55512;50.102;19.958;2022-07-03T04:04:01;99244.20;;;18.30
68510;BMP180;55512;50.102;19.958;2022-07-03T04:06:27;99241.80;;;18.30
68510;BMP180;55512;50.102;19.958;2022-07-03T04:08:52;99246.00;;;18.40
68510;BMP180;55512;50.102;19.958;2022-07-03T04:11:18;99243.80;;;18.40
68510;BMP180;55512;50.102;19.958;2022-07-03T04:13:44;99250.40;;;18.50
68510;BMP180;55512;50.102;19.958;2022-07-03T04:16:11;99255.00;;;18.50
68510;BMP180;55512;50.102;19.958;2022-07-03T04:18:37;99255.40;;;18.50
68510;BMP180;55512;50.102;19.958;2022-07-03T04:21:03;99257.60;;;18.60
68510;BMP180;55512;50.102;19.958;2022-07-03T04:23:29;99262.20;;;18.60
68510;BMP180;55512;50.102;19.958;2022-07-03T04:25:55;99263.80;;;18.60
68510;BMP180;55512;50.102;19.958;2022-07-03T04:28:21;99269.20;;;18.70
68510;BMP180;55512;50.102;19.958;2022-07-03T04:30:47;99268.00;;;18.80
68510;BMP180;55512;50.102;19.958;2022-07-03T04:33:13;99264.80;;;18.80
68510;BMP180;55512;50.102;19.958;2022-07-03T04:35:39;99265.00;;;18.90
68510;BMP180;55512;50.102;19.958;2022-07-03T04:38:04;99259.00;;;19.00
68510;BMP180;55512;50.102;19.958;2022-07-03T04:40:30;99255.00;;;19.02
68510;BMP180;55512;50.102;19.958;2022-07-03T04:42:56;99255.80;;;19.10
68510;BMP180;55512;50.102;19.958;2022-07-03T04:45:21;99251.40;;;19.20
68510;BMP180;55512;50.102;19.958;2022-07-03T04:47:47;99254.80;;;19.30
68510;BMP180;55512;50.102;19.958;2022-07-03T04:50:13;99256.60;;;19.40
68510;BMP180;55512;50.102;19.958;2022-07-03T04:52:38;99253.80;;;19.50
68510;BMP180;55512;50.102;19.958;2022-07-03T04:55:04;99249.20;;;19.60
68510;BMP180;55512;50.102;19.958;2022-07-03T04:57:30;99248.00;;;19.74
68510;BMP180;55512;50.102;19.958;2022-07-03T04:59:56;99248.80;;;19.94
68510;BMP180;55512;50.102;19.958;2022-07-03T05:02:21;99251.60;;;20.10
68510;BMP180;55512;50.102;19.958;2022-07-03T05:04:47;99253.00;;;20.20
68510;BMP180;55512;50.102;19.958;2022-07-03T05:07:12;99250.60;;;20.34
68510;BMP180;55512;50.102;19.958;2022-07-03T05:09:38;99248.20;;;20.50
68510;BMP180;55512;50.102;19.958;2022-07-03T05:12:04;99241.20;;;20.60
68510;BMP180;55512;50.102;19.958;2022-07-03T05:14:30;99230.00;;;20.74
68510;BMP180;55512;50.102;19.958;2022-07-03T05:16:56;99227.20;;;20.82
68510;BMP180;55512;50.102;19.958;2022-07-03T05:19:22;99216.20;;;20.90
68510;BMP180;55512;50.102;19.958;2022-07-03T05:21:47;99218.60;;;21.00
68510;BMP180;55512;50.102;19.958;2022-07-03T05:24:13;99222.40;;;21.02
68510;BMP180;55512;50.102;19.958;2022-07-03T05:26:38;99225.00;;;21.14
68510;BMP180;55512;50.102;19.958;2022-07-03T05:29:04;99220.00;;;21.22
68510;BMP180;55512;50.102;19.958;2022-07-03T05:31:30;99225.00;;;21.30
68510;BMP180;55512;50.102;19.958;2022-07-03T05:33:55;99222.60;;;21.40
68510;BMP180;55512;50.102;19.958;2022-07-03T05:36:21;99222.00;;;21.50
68510;BMP180;55512;50.102;19.958;2022-07-03T05:38:47;99229.20;;;21.66
68510;BMP180;55512;50.102;19.958;2022-07-03T05:41:31;99232.60;;;21.80
68510;BMP180;55512;50.102;19.958;2022-07-03T05:43:57;99236.40;;;21.90
68510;BMP180;55512;50.102;19.958;2022-07-03T05:46:23;99237.40;;;21.96
68510;BMP180;55512;50.102;19.958;2022-07-03T05:48:49;99236.20;;;22.10
68510;BMP180;55512;50.102;19.958;2022-07-03T05:51:15;99238.40;;;22.30
68510;BMP180;55512;50.102;19.958;2022-07-03T05:53:40;99237.60;;;22.30
68510;BMP180;55512;50.102;19.958;2022-07-03T05:56:06;99237.80;;;22.40
68510;BMP180;55512;50.102;19.958;2022-07-03T05:58:31;99240.80;;;22.40
68510;BMP180;55512;50.102;19.958;2022-07-03T06:00:57;99241.20;;;22.40
68510;BMP180;55512;50.102;19.958;2022-07-03T06:03:23;99244.20;;;22.50
68510;BMP180;55512;50.102;19.958;2022-07-03T06:05:49;99243.80;;;22.60
68510;BMP180;55512;50.102;19.958;2022-07-03T06:08:14;99243.60;;;22.80
68510;BMP180;55512;50.102;19.958;2022-07-03T06:10:40;99241.60;;;22.90
68510;BMP180;55512;50.102;19.958;2022-07-03T06:13:06;99247.40;;;23.00
68510;BMP180;55512;50.102;19.958;2022-07-03T06:15:31;99245.20;;;23.10
68510;BMP180;55512;50.102;19.958;2022-07-03T06:17:58;99242.00;;;23.20
68510;BMP180;55512;50.102;19.958;2022-07-03T06:20:23;99244.40;;;23.30
68510;BMP180;55512;50.102;19.958;2022-07-03T06:22:49;99241.80;;;23.30
68510;BMP180;55512;50.102;19.958;2022-07-03T06:25:15;99244.60;;;23.32
68510;BMP180;55512;50.102;19.958;2022-07-03T06:27:41;99244.60;;;23.50
68510;BMP180;55512;50.102;19.958;2022-07-03T06:30:09;99244.40;;;23.60
68510;BMP180;55512;50.102;19.958;2022-07-03T06:32:35;99243.20;;;23.64
68510;BMP180;55512;50.102;19.958;2022-07-03T06:35:01;99246.20;;;23.80
68510;BMP180;55512;50.102;19.958;2022-07-03T06:37:26;99247.60;;;23.90
68510;BMP180;55512;50.102;19.958;2022-07-03T06:39:52;99248.40;;;24.00
68510;BMP180;55512;50.102;19.958;2022-07-03T06:42:18;99249.40;;;24.16
68510;BMP180;55512;50.102;19.958;2022-07-03T06:44:44;99239.80;;;24.20
68510;BMP180;55512;50.102;19.958;2022-07-03T06:47:10;99233.80;;;24.30
68510;BMP180;55512;50.102;19.958;2022-07-03T06:49:36;99237.60;;;24.34
68510;BMP180;55512;50.102;19.958;2022-07-03T06:52:02;99241.60;;;24.40
68510;BMP180;55512;50.102;19.958;2022-07-03T06:54:28;99239.00;;;24.54
68510;BMP180;55512;50.102;19.958;2022-07-03T06:56:53;99235.60;;;24.60
68510;BMP180;55512;50.102;19.958;2022-07-03T06:59:19;99232.60;;;24.60
68510;BMP180;55512;50.102;19.958;2022-07-03T07:01:45;99228.20;;;24.60
68510;BMP180;55512;50.102;19.958;2022-07-03T07:04:11;99233.00;;;24.64
68510;BMP180;55512;50.102;19.958;2022-07-03T07:06:37;99229.40;;;24.70
68510;BMP180;55512;50.102;19.958;2022-07-03T07:09:03;99229.60;;;24.80
68510;BMP180;55512;50.102;19.958;2022-07-03T07:11:30;99222.20;;;24.80
68510;BMP180;55512;50.102;19.958;2022-07-03T07:13:55;99216.20;;;24.90
68510;BMP180;55512;50.102;19.958;2022-07-03T07:16:21;99218.60;;;25.00
68510;BMP180;55512;50.102;19.958;2022-07-03T07:18:47;99219.00;;;25.10
68510;BMP180;55512;50.102;19.958;2022-07-03T07:21:12;99220.40;;;25.10
68510;BMP180;55512;50.102;19.958;2022-07-03T07:23:38;99213.60;;;25.10
68510;BMP180;55512;50.102;19.958;2022-07-03T07:26:04;99213.60;;;25.00
68510;BMP180;55512;50.102;19.958;2022-07-03T07:28:31;99208.80;;;25.10
68510;BMP180;55512;50.102;19.958;2022-07-03T07:30:59;99208.00;;;25.10
68510;BMP180;55512;50.102;19.958;2022-07-03T07:33:25;99207.00;;;25.20
68510;BMP180;55512;50.102;19.958;2022-07-03T07:35:50;99195.80;;;25.20
68510;BMP180;55512;50.102;19.958;2022-07-03T07:38:17;99199.00;;;25.20
68510;BMP180;55512;50.102;19.958;2022-07-03T07:40:43;99199.60;;;25.00
68510;BMP180;55512;50.102;19.958;2022-07-03T07:43:09;99201.00;;;24.90
68510;BMP180;55512;50.102;19.958;2022-07-03T07:45:35;99203.20;;;24.90
68510;BMP180;55512;50.102;19.958;2022-07-03T07:48:01;99200.20;;;24.90
68510;BMP180;55512;50.102;19.958;2022-07-03T07:50:27;99197.20;;;24.78
68510;BMP180;55512;50.102;19.958;2022-07-03T07:52:53;99195.00;;;24.80
68510;BMP180;55512;50.102;19.958;2022-07-03T07:55:19;99195.20;;;24.90
68510;BMP180;55512;50.102;19.958;2022-07-03T07:57:47;99192.00;;;25.00
68510;BMP180;55512;50.102;19.958;2022-07-03T08:00:17;99188.80;;;25.20
68510;BMP180;55512;50.102;19.958;2022-07-03T08:02:44;99194.80;;;25.40
68510;BMP180;55512;50.102;19.958;2022-07-03T08:05:29;99194.00;;;25.50
68510;BMP180;55512;50.102;19.958;2022-07-03T08:08:21;99187.00;;;25.70
68510;BMP180;55512;50.102;19.958;2022-07-03T08:10:50;99188.00;;;25.90
68510;BMP180;55512;50.102;19.958;2022-07-03T08:13:19;99183.40;;;26.00
68510;BMP180;55512;50.102;19.958;2022-07-03T08:15:46;99183.00;;;26.02
68510;BMP180;55512;50.102;19.958;2022-07-03T08:18:12;99183.80;;;26.10
68510;BMP180;55512;50.102;19.958;2022-07-03T08:20:38;99187.20;;;26.00
68510;BMP180;55512;50.102;19.958;2022-07-03T08:23:05;99183.60;;;25.94
68510;BMP180;55512;50.102;19.958;2022-07-03T08:25:31;99184.60;;;26.00
68510;BMP180;55512;50.102;19.958;2022-07-03T08:27:57;99184.60;;;26.18
68510;BMP180;55512;50.102;19.958;2022-07-03T08:30:24;99190.00;;;26.32
68510;BMP180;55512;50.102;19.958;2022-07-03T08:32:55;99187.60;;;26.50
68510;BMP180;55512;50.102;19.958;2022-07-03T08:35:22;99187.20;;;26.60
68510;BMP180;55512;50.102;19.958;2022-07-03T08:37:48;99192.40;;;26.70
68510;BMP180;55512;50.102;19.958;2022-07-03T08:40:16;99185.20;;;26.80
68510;BMP180;55512;50.102;19.958;2022-07-03T08:42:53;99189.80;;;27.00
68510;BMP180;55512;50.102;19.958;2022-07-03T08:45:21;99181.80;;;27.30
68510;BMP180;55512;50.102;19.958;2022-07-03T08:47:49;99182.40;;;27.40
68510;BMP180;55512;50.102;19.958;2022-07-03T08:50:17;99183.60;;;27.40
68510;BMP180;55512;50.102;19.958;2022-07-03T08:52:45;99183.80;;;27.50
68510;BMP180;55512;50.102;19.958;2022-07-03T08:55:13;99181.80;;;27.60
68510;BMP180;55512;50.102;19.958;2022-07-03T08:57:41;99182.80;;;27.96
68510;BMP180;55512;50.102;19.958;2022-07-03T09:00:12;99185.00;;;28.20
68510;BMP180;55512;50.102;19.958;2022-07-03T09:02:41;99181.60;;;28.40
68510;BMP180;55512;50.102;19.958;2022-07-03T09:05:13;99178.00;;;28.40
68510;BMP180;55512;50.102;19.958;2022-07-03T09:07:43;99181.80;;;28.40
68510;BMP180;55512;50.102;19.958;2022-07-03T09:10:16;99178.40;;;28.50
68510;BMP180;55512;50.102;19.958;2022-07-03T09:12:46;99175.20;;;28.60
68510;BMP180;55512;50.102;19.958;2022-07-03T09:15:12;99170.40;;;28.60
68510;BMP180;55512;50.102;19.958;2022-07-03T09:17:39;99170.00;;;28.50
68510;BMP180;55512;50.102;19.958;2022-07-03T09:20:07;99163.80;;;28.40
68510;BMP180;55512;50.102;19.958;2022-07-03T09:22:36;99165.40;;;28.40
68510;BMP180;55512;50.102;19.958;2022-07-03T09:25:11;99164.80;;;28.26
68510;BMP180;55512;50.102;19.958;2022-07-03T09:27:51;99165.00;;;28.14
68510;BMP180;55512;50.102;19.958;2022-07-03T09:30:17;99166.20;;;28.42
68510;BMP180;55512;50.102;19.958;2022-07-03T09:32:46;99166.40;;;28.80
68510;BMP180;55512;50.102;19.958;2022-07-03T09:35:24;99158.60;;;28.90
68510;BMP180;55512;50.102;19.958;2022-07-03T09:38:03;99157.20;;;29.00
68510;BMP180;55512;50.102;19.958;2022-07-03T09:40:55;99159.20;;;29.00
68510;BMP180;55512;50.102;19.958;2022-07-03T09:43:29;99164.40;;;28.80
68510;BMP180;55512;50.102;19.958;2022-07-03T09:45:57;99162.60;;;28.70
68510;BMP180;55512;50.102;19.958;2022-07-03T09:48:34;99164.20;;;28.94
68510;BMP180;55512;50.102;19.958;2022-07-03T09:51:20;99165.60;;;29.22
68510;BMP180;55512;50.102;19.958;2022-07-03T09:54:01;99159.00;;;29.28
68510;BMP180;55512;50.102;19.958;2022-07-03T09:56:38;99154.20;;;29.64
68510;BMP180;55512;50.102;19.958;2022-07-03T09:59:15;99157.60;;;29.90
68510;BMP180;55512;50.102;19.958;2022-07-03T10:01:45;99154.40;;;29.94
68510;BMP180;55512;50.102;19.958;2022-07-03T10:04:20;99148.80;;;29.52
68510;BMP180;55512;50.102;19.958;2022-07-03T10:06:59;99150.00;;;29.40
68510;BMP180;55512;50.102;19.958;2022-07-03T10:09:29;99147.20;;;29.50
68510;BMP180;55512;50.102;19.958;2022-07-03T10:11:57;99149.80;;;29.60
68510;BMP180;55512;50.102;19.958;2022-07-03T10:14:32;99154.00;;;29.70
68510;BMP180;55512;50.102;19.958;2022-07-03T10:16:59;99147.40;;;29.94
68510;BMP180;55512;50.102;19.958;2022-07-03T10:19:29;99147.20;;;30.20
68510;BMP180;55512;50.102;19.958;2022-07-03T10:21:59;99148.00;;;30.40
68510;BMP180;55512;50.102;19.958;2022-07-03T10:24:30;99144.60;;;30.42
68510;BMP180;55512;50.102;19.958;2022-07-03T10:26:58;99142.80;;;30.20
68510;BMP180;55512;50.102;19.958;2022-07-03T10:29:28;99139.60;;;30.40
68510;BMP180;55512;50.102;19.958;2022-07-03T10:31:55;99135.40;;;30.60
68510;BMP180;55512;50.102;19.958;2022-07-03T10:34:23;99135.80;;;30.70
68510;BMP180;55512;50.102;19.958;2022-07-03T10:36:54;99132.40;;;30.80
68510;BMP180;55512;50.102;19.958;2022-07-03T10:40:03;99126.80;;;30.68
68510;BMP180;55512;50.102;19.958;2022-07-03T10:42:58;99124.40;;;30.40
68510;BMP180;55512;50.102;19.958;2022-07-03T10:46:15;99121.80;;;30.36
68510;BMP180;55512;50.102;19.958;2022-07-03T10:49:19;99122.60;;;30.10
68510;BMP180;55512;50.102;19.958;2022-07-03T10:54:32;99110.40;;;30.00
68510;BMP180;55512;50.102;19.958;2022-07-03T10:57:06;99108.20;;;29.60
68510;BMP180;55512;50.102;19.958;2022-07-03T11:25:59;99079.20;;;29.86
68510;BMP180;55512;50.102;19.958;2022-07-03T11:44:02;99076.80;;;28.84
68510;BMP180;55512;50.102;19.958;2022-07-03T11:46:31;99079.00;;;28.98
68510;BMP180;55512;50.102;19.958;2022-07-03T11:49:18;99077.80;;;29.20
68510;BMP180;55512;50.102;19.958;2022-07-03T11:51:55;99078.60;;;29.66
68510;BMP180;55512;50.102;19.958;2022-07-03T11:54:21;99074.60;;;29.68
68510;BMP180;55512;50.102;19.958;2022-07-03T11:56:47;99071.00;;;29.70
68510;BMP180;55512;50.102;19.958;2022-07-03T11:59:13;99074.80;;;29.54
68510;BMP180;55512;50.102;19.958;2022-07-03T12:01:39;99074.40;;;29.12
68510;BMP180;55512;50.102;19.958;2022-07-03T12:04:21;99069.40;;;29.16
68510;BMP180;55512;50.102;19.958;2022-07-03T12:06:55;99067.00;;;29.50
68510;BMP180;55512;50.102;19.958;2022-07-03T12:09:31;99062.00;;;29.90
68510;BMP180;55512;50.102;19.958;2022-07-03T12:12:04;99058.60;;;30.32
68510;BMP180;55512;50.102;19.958;2022-07-03T12:14:50;99056.00;;;30.50
68510;BMP180;55512;50.102;19.958;2022-07-03T12:17:26;99050.80;;;30.70
68510;BMP180;55512;50.102;19.958;2022-07-03T12:19:54;99051.60;;;30.90
68510;BMP180;55512;50.102;19.958;2022-07-03T12:22:34;99043.40;;;30.60
68510;BMP180;55512;50.102;19.958;2022-07-03T12:27:34;99033.40;;;30.00
68510;BMP180;55512;50.102;19.958;2022-07-03T12:30:02;99039.60;;;29.80
68510;BMP180;55512;50.102;19.958;2022-07-03T12:32:28;99031.80;;;30.00
68510;BMP180;55512;50.102;19.958;2022-07-03T12:34:55;99034.00;;;30.30
68510;BMP180;55512;50.102;19.958;2022-07-03T12:37:35;99034.40;;;30.50
68510;BMP180;55512;50.102;19.958;2022-07-03T12:40:03;99026.80;;;30.76
68510;BMP180;55512;50.102;19.958;2022-07-03T12:42:29;99023.00;;;31.00
68510;BMP180;55512;50.102;19.958;2022-07-03T12:45:00;99020.00;;;31.30
68510;BMP180;55512;50.102;19.958;2022-07-03T12:47:29;99015.00;;;31.72
68510;BMP180;55512;50.102;19.958;2022-07-03T12:50:00;99012.20;;;32.10
68510;BMP180;55512;50.102;19.958;2022-07-03T12:52:28;99017.40;;;32.38
68510;BMP180;55512;50.102;19.958;2022-07-03T12:54:55;99015.20;;;32.20
68510;BMP180;55512;50.102;19.958;2022-07-03T12:57:23;99011.20;;;32.20
68510;BMP180;55512;50.102;19.958;2022-07-03T13:00:17;99010.40;;;32.10
68510;BMP180;55512;50.102;19.958;2022-07-03T13:02:47;99015.40;;;32.20
68510;BMP180;55512;50.102;19.958;2022-07-03T13:05:16;99014.60;;;32.10
68510;BMP180;55512;50.102;19.958;2022-07-03T13:07:47;99011.80;;;32.12
68510;BMP180;55512;50.102;19.958;2022-07-03T13:10:15;99008.00;;;32.30
68510;BMP180;55512;50.102;19.958;2022-07-03T13:12:57;99002.20;;;32.66
68510;BMP180;55512;50.102;19.958;2022-07-03T13:15:28;99001.80;;;33.12
68510;BMP180;55512;50.102;19.958;2022-07-03T13:22:53;98992.60;;;34.42
68510;BMP180;55512;50.102;19.958;2022-07-03T13:25:19;98997.00;;;34.34
68510;BMP180;55512;50.102;19.958;2022-07-03T13:27:46;98999.00;;;34.22
68510;BMP180;55512;50.102;19.958;2022-07-03T13:30:14;98993.20;;;34.24
68510;BMP180;55512;50.102;19.958;2022-07-03T13:32:41;98994.00;;;34.50
68510;BMP180;55512;50.102;19.958;2022-07-03T13:35:08;98986.60;;;34.70
68510;BMP180;55512;50.102;19.958;2022-07-03T13:37:33;98988.40;;;34.22
68510;BMP180;55512;50.102;19.958;2022-07-03T13:40:01;98983.20;;;33.80
68510;BMP180;55512;50.102;19.958;2022-07-03T13:42:27;98984.60;;;33.94
68510;BMP180;55512;50.102;19.958;2022-07-03T13:44:53;98981.40;;;34.44
68510;BMP180;55512;50.102;19.958;2022-07-03T13:47:18;98980.80;;;35.00
68510;BMP180;55512;50.102;19.958;2022-07-03T13:49:44;98976.00;;;35.00
68510;BMP180;55512;50.102;19.958;2022-07-03T13:52:10;98974.40;;;34.80
68510;BMP180;55512;50.102;19.958;2022-07-03T13:54:36;98968.80;;;34.72
68510;BMP180;55512;50.102;19.958;2022-07-03T13:57:02;98969.20;;;34.82
68510;BMP180;55512;50.102;19.958;2022-07-03T13:59:28;98967.60;;;35.20
68510;BMP180;55512;50.102;19.958;2022-07-03T14:01:57;98973.60;;;35.66
68510;BMP180;55512;50.102;19.958;2022-07-03T14:04:23;98964.80;;;36.08
68510;BMP180;55512;50.102;19.958;2022-07-03T14:06:48;98969.80;;;36.50
68510;BMP180;55512;50.102;19.958;2022-07-03T14:09:14;98965.80;;;36.94
68510;BMP180;55512;50.102;19.958;2022-07-03T14:11:40;98967.00;;;37.20
68510;BMP180;55512;50.102;19.958;2022-07-03T14:14:06;98962.60;;;37.30
68510;BMP180;55512;50.102;19.958;2022-07-03T14:16:32;98964.20;;;37.18
68510;BMP180;55512;50.102;19.958;2022-07-03T14:18:58;98953.20;;;36.16
68510;BMP180;55512;50.102;19.958;2022-07-03T14:21:24;98949.20;;;36.00
68510;BMP180;55512;50.102;19.958;2022-07-03T14:23:50;98950.80;;;36.40
68510;BMP180;55512;50.102;19.958;2022-07-03T14:26:16;98952.40;;;36.50
68510;BMP180;55512;50.102;19.958;2022-07-03T14:29:02;98953.40;;;36.50
68510;BMP180;55512;50.102;19.958;2022-07-03T14:31:46;98953.40;;;36.10
68510;BMP180;55512;50.102;19.958;2022-07-03T14:34:30;98945.20;;;36.28
68510;BMP180;55512;50.102;19.958;2022-07-03T14:36:56;98949.80;;;36.30
68510;BMP180;55512;50.102;19.958;2022-07-03T14:39:22;98943.00;;;36.38
68510;BMP180;55512;50.102;19.958;2022-07-03T14:41:47;98944.00;;;36.60
68510;BMP180;55512;50.102;19.958;2022-07-03T14:44:14;98943.60;;;36.90
68510;BMP180;55512;50.102;19.958;2022-07-03T14:46:40;98945.80;;;37.26
68510;BMP180;55512;50.102;19.958;2022-07-03T14:49:06;98951.00;;;37.50
68510;BMP180;55512;50.102;19.958;2022-07-03T14:51:32;98946.40;;;37.30
68510;BMP180;55512;50.102;19.958;2022-07-03T14:53:58;98948.00;;;37.40
68510;BMP180;55512;50.102;19.958;2022-07-03T14:56:23;98943.80;;;37.40
68510;BMP180;55512;50.102;19.958;2022-07-03T14:58:50;98950.60;;;37.70
68510;BMP180;55512;50.102;19.958;2022-07-03T15:01:17;98948.60;;;37.14
68510;BMP180;55512;50.102;19.958;2022-07-03T15:04:01;98939.80;;;36.60
68510;BMP180;55512;50.102;19.958;2022-07-03T15:06:28;98941.00;;;36.40
68510;BMP180;55512;50.102;19.958;2022-07-03T15:09:04;98940.00;;;36.30
68510;BMP180;55512;50.102;19.958;2022-07-03T15:11:54;98939.80;;;36.30
68510;BMP180;55512;50.102;19.958;2022-07-03T15:14:42;98938.40;;;36.30
68510;BMP180;55512;50.102;19.958;2022-07-03T15:17:08;98934.00;;;36.50
68510;BMP180;55512;50.102;19.958;2022-07-03T15:19:38;98932.80;;;36.98
68510;BMP180;55512;50.102;19.958;2022-07-03T15:22:04;98930.80;;;37.52
68510;BMP180;55512;50.102;19.958;2022-07-03T15:24:30;98934.80;;;37.74
68510;BMP180;55512;50.102;19.958;2022-07-03T15:26:57;98928.00;;;37.52